Time;durP1;ratioP1;P1;durP2;ratioP2;P2;SDS_P1;SDS_P2;PMS_P1;PMS_P2;Temp;Humidity;BMP_temperature;BMP_pressure;BME280_temperature;BME280_humidity;BME280_pressure;Samples;Min_cycle;Max_cycle;Signal;HPM_P1;HPM_P2
2022/10/11 00:00:51;;;;;;;9.95;4.30;;;;;;;7.43;89.88;102375.59;5004280;28;20033;-84
2022/10/11 00:03:16;;;;;;;11.00;4.07;;;;;;;7.38;89.85;102371.53;5001181;28;20042;-83
2022/10/11 00:05:43;;;;;;;10.00;4.07;;;;;;;7.40;89.51;102370.56;4985788;28;20044;-84
2022/10/11 00:08:09;;;;;;;10.05;4.05;;;;;;;7.40;89.25;102380.91;4985426;28;20022;-82
2022/10/11 00:10:35;;;;;;;10.70;4.35;;;;;;;7.38;89.90;102377.53;5002176;28;20026;-81
2022/10/11 00:13:01;;;;;;;16.50;4.65;;;;;;;7.33;89.14;102374.31;5003589;28;20029;-82
2022/10/11 00:15:26;;;;;;;10.65;4.57;;;;;;;7.28;89.75;102368.50;5003567;28;20396;-83
2022/10/11 00:17:51;;;;;;;10.88;4.65;;;;;;;7.19;89.83;102364.56;5003035;28;20164;-83
2022/10/11 00:20:17;;;;;;;11.73;4.53;;;;;;;7.28;89.82;102378.81;5003124;28;20037;-83
2022/10/11 00:22:43;;;;;;;11.68;4.55;;;;;;;7.28;89.86;102386.56;5004522;28;20072;-82
2022/10/11 00:25:10;;;;;;;12.77;4.78;;;;;;;7.25;90.05;102376.38;5004051;28;20054;-82
2022/10/11 00:27:36;;;;;;;12.02;4.88;;;;;;;7.18;90.14;102380.97;5005112;28;20038;-82
2022/10/11 00:30:03;;;;;;;13.88;5.13;;;;;;;7.12;89.80;102370.06;5001396;28;20021;-83
2022/10/11 00:32:28;;;;;;;14.80;5.10;;;;;;;7.18;90.22;102382.72;5003370;28;20530;-82
2022/10/11 00:34:55;;;;;;;9.82;5.10;;;;;;;7.14;89.64;102376.00;5004830;28;20388;-82
2022/10/11 00:37:20;;;;;;;11.82;4.30;;;;;;;7.23;90.14;102396.25;4999709;28;20467;-82
2022/10/11 00:39:46;;;;;;;13.68;4.97;;;;;;;7.16;90.36;102387.09;4997079;28;20533;-82
2022/10/11 00:42:14;;;;;;;9.98;4.72;;;;;;;7.08;90.35;102378.84;5005254;28;20732;-82
2022/10/11 00:44:44;;;;;;;11.30;5.00;;;;;;;7.17;90.76;102399.94;4999504;28;20030;-82
2022/10/11 00:47:14;;;;;;;12.95;5.07;;;;;;;7.08;90.78;102381.41;5003125;28;20500;-83
2022/10/11 00:49:45;;;;;;;14.63;5.20;;;;;;;7.13;91.17;102392.38;4983475;28;20034;-82
2022/10/11 00:52:34;;;;;;;13.60;5.10;;;;;;;7.14;91.04;102401.81;4986403;28;20049;-82
2022/10/11 00:55:04;;;;;;;10.50;5.28;;;;;;;7.04;91.18;102396.19;5001095;28;20056;-82
2022/10/11 00:57:33;;;;;;;12.65;5.65;;;;;;;7.01;91.06;102398.06;4984038;28;20029;-82
2022/10/11 00:59:59;;;;;;;10.70;5.10;;;;;;;7.08;91.84;102409.81;5004497;28;20030;-82
2022/10/11 01:02:25;;;;;;;11.45;4.50;;;;;;;7.11;91.38;102412.22;5001373;28;20037;-82
2022/10/11 01:04:51;;;;;;;14.00;5.53;;;;;;;7.05;91.23;102408.16;4987026;28;20056;-82
2022/10/11 01:07:19;;;;;;;10.60;4.50;;;;;;;7.09;91.36;102417.47;5004488;28;20061;-85
2022/10/11 01:09:51;;;;;;;12.68;5.15;;;;;;;7.01;91.31;102413.53;5005094;28;20041;-83
2022/10/11 01:12:22;;;;;;;12.30;4.50;;;;;;;7.05;92.15;102415.06;4988824;28;20489;-83
2022/10/11 01:14:47;;;;;;;12.05;5.07;;;;;;;7.03;91.64;102412.56;5004354;28;20149;-83
2022/10/11 01:17:23;;;;;;;9.60;4.63;;;;;;;7.02;91.58;102410.88;5007652;28;20105;-81
2022/10/11 01:20:30;;;;;;;13.77;4.30;;;;;;;7.06;91.31;102416.78;5008754;28;20124;-82
2022/10/11 01:23:09;;;;;;;13.05;5.30;;;;;;;7.02;91.60;102415.22;4992009;28;20124;-83
2022/10/11 01:25:43;;;;;;;9.75;4.80;;;;;;;7.02;91.52;102420.38;5008057;28;20105;-84
2022/10/11 01:28:35;;;;;;;10.48;4.30;;;;;;;6.98;91.66;102419.66;5003927;28;20034;-83
2022/10/11 01:31:10;;;;;;;13.73;4.47;;;;;;;6.93;91.49;102416.41;4990288;28;20065;-83
2022/10/11 01:33:43;;;;;;;15.40;5.05;;;;;;;6.89;90.61;102415.72;5008576;28;20026;-83
2022/10/11 01:36:26;;;;;;;13.50;4.57;;;;;;;6.88;90.93;102424.38;5007229;28;20462;-83
2022/10/11 01:39:15;;;;;;;11.45;4.95;;;;;;;6.83;90.92;102415.97;4989705;28;20030;-82
2022/10/11 01:41:48;;;;;;;;;;;;;;;6.89;90.69;102418.31;4996342;28;20042;-83
2022/10/11 01:44:15;;;;;;;7.97;3.90;;;;;;;6.75;89.97;102425.72;5001173;28;20021;-83
2022/10/11 01:46:41;;;;;;;13.15;4.35;;;;;;;6.75;90.44;102423.16;5005101;28;20107;-83
2022/10/11 01:49:07;;;;;;;9.00;4.28;;;;;;;6.73;90.28;102422.38;5007485;28;20447;-83
2022/10/11 01:51:38;;;;;;;11.18;4.80;;;;;;;6.65;90.59;102427.00;4989163;28;20032;-83
2022/10/11 01:54:25;;;;;;;12.32;4.20;;;;;;;6.68;90.50;102426.88;4989617;28;20034;-83
2022/10/11 01:57:13;;;;;;;10.40;4.05;;;;;;;6.63;90.24;102421.06;4998121;28;20049;-83
2022/10/11 01:59:44;;;;;;;11.18;4.35;;;;;;;6.58;90.31;102423.81;5003678;28;20038;-82
2022/10/11 02:05:50;;;;;;;12.50;4.40;;;;;;;6.62;90.87;102432.28;5003201;28;20378;-82
2022/10/11 02:08:15;;;;;;;9.50;4.00;;;;;;;6.64;90.36;102435.63;5731600;22;20053;-81
2022/10/11 02:10:54;;;;;;;10.68;4.22;;;;;;;6.60;91.07;102418.63;5020747;28;20407;-82
2022/10/11 02:13:31;;;;;;;9.77;4.00;;;;;;;6.60;90.57;102418.63;5026171;28;20104;-81
2022/10/11 02:16:01;;;;;;;12.02;4.28;;;;;;;6.59;90.47;102422.09;5024223;28;20030;-81
2022/10/11 02:18:31;;;;;;;8.70;4.05;;;;;;;6.62;90.55;102437.44;5025681;28;20030;-81
2022/10/11 02:21:01;;;;;;;9.48;4.68;;;;;;;6.57;90.03;102431.63;5026204;28;20540;-82
2022/10/11 02:23:35;;;;;;;9.18;3.85;;;;;;;6.53;90.09;102432.63;5023992;28;20469;-82
2022/10/11 02:26:05;;;;;;;12.80;4.28;;;;;;;6.47;90.48;102438.03;5026570;28;20026;-82
2022/10/11 02:28:33;;;;;;;12.48;4.35;;;;;;;6.49;90.83;102436.25;5040661;28;20029;-82
2022/10/11 02:31:02;;;;;;;12.95;4.97;;;;;;;6.37;91.32;102430.66;5021387;28;20099;-82
2022/10/11 02:33:52;;;;;;;11.13;4.72;;;;;;;6.41;90.91;102427.94;5025523;28;20049;-82
2022/10/11 02:36:28;;;;;;;9.75;3.95;;;;;;;6.37;91.17;102428.09;5025072;28;20068;-82
2022/10/11 02:39:02;;;;;;;11.45;4.65;;;;;;;6.40;91.25;102437.44;5024354;28;20044;-82
2022/10/11 02:41:31;;;;;;;10.80;4.38;;;;;;;6.46;91.58;102441.50;5022485;28;20036;-82
2022/10/11 02:44:09;;;;;;;9.27;3.97;;;;;;;6.36;91.37;102444.41;5026243;28;20087;-82
2022/10/11 02:46:36;;;;;;;13.55;4.18;;;;;;;6.37;91.54;102443.56;5025437;28;20638;-82
2022/10/11 02:49:02;;;;;;;8.05;3.70;;;;;;;6.38;91.11;102434.09;5024382;28;20025;-82
2022/10/11 02:51:32;;;;;;;10.85;4.32;;;;;;;6.31;91.39;102433.47;5026282;28;20037;-82
2022/10/11 02:53:57;;;;;;;10.30;4.45;;;;;;;6.25;91.57;102438.88;5024830;28;20025;-82
2022/10/11 02:56:23;;;;;;;9.45;4.20;;;;;;;6.32;91.89;102445.47;5025817;28;20037;-82
2022/10/11 02:58:48;;;;;;;10.02;4.60;;;;;;;6.28;92.08;102438.72;5026016;28;20034;-81
2022/10/11 03:01:14;;;;;;;10.35;4.68;;;;;;;6.36;91.70;102454.72;5025226;28;20041;-81
2022/10/11 03:03:39;;;;;;;10.85;4.43;;;;;;;6.31;91.84;102443.78;5024893;28;20033;-82
2022/10/11 03:06:05;;;;;;;11.70;4.15;;;;;;;6.33;91.60;102447.13;5025782;28;20040;-82
2022/10/11 03:08:30;;;;;;;12.30;4.00;;;;;;;6.28;91.73;102449.03;5038061;28;20491;-82
2022/10/11 03:10:56;;;;;;;10.15;4.00;;;;;;;6.26;91.90;102450.84;5025719;28;20473;-81
2022/10/11 03:13:21;;;;;;;15.40;4.13;;;;;;;6.22;91.14;102449.28;5024738;28;20029;-82
2022/10/11 03:15:48;;;;;;;9.40;4.18;;;;;;;6.17;91.32;102451.19;5023751;28;20021;-82
2022/10/11 03:18:13;;;;;;;16.30;4.13;;;;;;;6.19;91.33;102454.53;5024372;28;20060;-82
2022/10/11 03:20:39;;;;;;;11.27;4.15;;;;;;;6.15;91.64;102447.81;5025255;28;20068;-81
2022/10/11 03:23:04;;;;;;;11.18;4.25;;;;;;;6.02;91.49;102431.13;5025304;28;20112;-82
2022/10/11 03:25:29;;;;;;;9.50;4.32;;;;;;;6.10;91.97;102449.72;5024780;28;20377;-81
2022/10/11 03:27:55;;;;;;;10.82;4.45;;;;;;;6.14;92.18;102461.59;5040372;28;20435;-82
2022/10/11 03:30:20;;;;;;;12.10;4.90;;;;;;;6.16;92.35;102462.38;5023010;28;20040;-82
2022/10/11 03:32:45;;;;;;;13.32;4.10;;;;;;;6.14;92.23;102461.59;5038574;28;20034;-81
2022/10/11 03:35:11;;;;;;;10.80;4.18;;;;;;;6.13;92.75;102454.75;5023084;28;20377;-81
2022/10/11 03:37:36;;;;;;;11.98;4.05;;;;;;;6.17;92.87;102470.94;5024223;28;20519;-82
2022/10/11 03:40:03;;;;;;;8.63;4.50;;;;;;;6.16;92.31;102471.84;5024817;28;20044;-82
2022/10/11 03:42:28;;;;;;;11.80;4.38;;;;;;;6.13;92.63;102475.34;5022427;28;20026;-81
2022/10/11 03:44:54;;;;;;;10.32;4.00;;;;;;;6.08;92.34;102477.28;5025018;28;20041;-81
2022/10/11 03:47:19;;;;;;;11.50;4.85;;;;;;;6.10;92.02;102480.63;5022919;28;20140;-82
2022/10/11 03:49:44;;;;;;;8.10;3.55;;;;;;;6.00;92.58;102463.84;5024342;28;20041;-82
2022/10/11 03:52:10;;;;;;;9.65;4.35;;;;;;;6.03;92.75;102474.03;5024251;28;20021;-82
2022/10/11 03:54:35;;;;;;;7.70;3.75;;;;;;;6.02;92.44;102473.19;5024271;28;20036;-81
2022/10/11 03:57:01;;;;;;;9.90;4.13;;;;;;;5.97;92.38;102469.13;5023675;28;20032;-82
2022/10/11 03:59:26;;;;;;;8.30;3.95;;;;;;;5.90;92.39;102470.16;5024178;28;20030;-82
2022/10/11 04:01:51;;;;;;;8.18;4.05;;;;;;;5.93;92.22;102478.66;5024050;28;20064;-82
2022/10/11 04:04:17;;;;;;;7.60;3.65;;;;;;;5.98;91.87;102481.09;5021743;28;20483;-82
2022/10/11 04:06:42;;;;;;;10.00;4.13;;;;;;;5.87;92.34;102473.72;5023159;28;20472;-82
2022/10/11 04:09:08;;;;;;;12.43;3.63;;;;;;;5.92;92.29;102486.47;5023916;28;20056;-82
2022/10/11 04:11:34;;;;;;;9.48;4.05;;;;;;;5.90;92.50;102478.72;5023918;28;20021;-82
2022/10/11 04:13:59;;;;;;;13.40;4.35;;;;;;;5.92;91.97;102486.47;5023702;28;20036;-82
2022/10/11 04:16:24;;;;;;;9.73;3.72;;;;;;;5.77;91.81;102468.03;5022824;28;20447;-82
2022/10/11 04:18:50;;;;;;;5.93;3.30;;;;;;;5.78;91.60;102485.16;5016100;28;20068;-83
2022/10/11 04:21:16;;;;;;;7.50;3.08;;;;;;;5.77;91.47;102493.78;5021547;28;20033;-82
2022/10/11 04:23:42;;;;;;;9.63;3.28;;;;;;;5.70;91.81;102492.31;5023957;28;20107;-82
2022/10/11 04:26:07;;;;;;;8.55;3.38;;;;;;;5.70;91.87;102500.03;5013840;28;20017;-82
2022/10/11 04:28:33;;;;;;;7.30;3.70;;;;;;;5.73;91.58;102505.06;5021930;28;20393;-82
2022/10/11 04:30:59;;;;;;;8.30;3.60;;;;;;;5.68;91.39;102503.53;5021281;28;20026;-82
2022/10/11 04:33:24;;;;;;;11.88;4.47;;;;;;;5.64;91.51;102502.81;5022596;28;20027;-82
2022/10/11 04:35:54;;;;;;;10.38;3.88;;;;;;;5.69;91.91;102511.22;5023184;28;20437;-82
2022/10/11 04:38:20;;;;;;;10.30;4.38;;;;;;;5.64;92.64;102500.25;5023142;28;20030;-82
2022/10/11 04:40:46;;;;;;;9.68;3.95;;;;;;;5.64;91.79;102507.97;5023337;28;20033;-83
2022/10/11 04:43:15;;;;;;;7.32;3.25;;;;;;;5.67;91.88;102509.59;5024808;28;20075;-82
2022/10/11 04:45:41;;;;;;;9.95;3.97;;;;;;;5.67;92.61;102510.44;5041247;28;20484;-82
2022/10/11 04:48:06;;;;;;;7.47;3.28;;;;;;;5.70;92.16;102515.47;5028675;28;20029;-82
2022/10/11 04:50:32;;;;;;;6.85;3.47;;;;;;;5.65;92.26;102514.78;5029239;28;20109;-82
2022/10/11 04:52:58;;;;;;;11.23;4.00;;;;;;;5.65;91.94;102517.38;5026577;28;20025;-82
2022/10/11 04:55:23;;;;;;;7.05;3.22;;;;;;;5.62;91.68;102519.19;5028096;28;20025;-83
2022/10/11 04:57:48;;;;;;;8.88;3.53;;;;;;;5.55;91.43;102505.69;5028359;28;20071;-82
2022/10/11 05:00:14;;;;;;;8.80;3.97;;;;;;;5.51;91.84;102517.00;5028877;28;20025;-82
2022/10/11 05:02:39;;;;;;;8.98;3.65;;;;;;;5.42;91.54;102512.16;5029328;28;20112;-82
2022/10/11 05:05:05;;;;;;;6.82;3.22;;;;;;;5.51;91.42;102519.59;5029210;28;20057;-82
2022/10/11 05:07:31;;;;;;;5.30;3.22;;;;;;;5.47;91.61;102512.84;5025867;28;20025;-82
2022/10/11 05:09:56;;;;;;;9.70;3.55;;;;;;;5.49;91.14;102513.63;5029016;28;20045;-81
2022/10/11 05:12:22;;;;;;;15.85;6.45;;;;;;;5.58;91.28;102526.19;5027835;28;20055;-83
2022/10/11 05:14:47;;;;;;;16.45;8.40;;;;;;;5.59;91.55;102527.88;5039053;28;20033;-82
2022/10/11 05:17:12;;;;;;;9.98;4.95;;;;;;;5.60;91.81;102532.13;5026871;28;20108;-81
2022/10/11 05:19:38;;;;;;;8.07;4.05;;;;;;;5.52;90.63;102523.84;5027218;28;20033;-81
2022/10/11 05:22:03;;;;;;;7.15;3.95;;;;;;;5.51;91.28;102540.16;5027392;28;20044;-81
2022/10/11 05:24:29;;;;;;;9.82;4.18;;;;;;;5.45;91.54;102530.03;5026894;28;20496;-81
2022/10/11 05:26:54;;;;;;;10.60;4.85;;;;;;;5.43;91.71;102532.69;5027263;28;20461;-81
2022/10/11 05:29:19;;;;;;;11.52;5.10;;;;;;;5.46;91.44;102529.19;5024926;28;20595;-81
2022/10/11 05:31:45;;;;;;;9.98;4.65;;;;;;;5.44;92.05;102530.94;5027168;28;20040;-81
2022/10/11 05:34:10;;;;;;;7.38;3.50;;;;;;;5.46;91.66;102534.31;5026101;28;20037;-81
2022/10/11 05:36:35;;;;;;;7.95;3.10;;;;;;;5.43;92.03;102526.69;5041679;28;20037;-81
2022/10/11 05:39:01;;;;;;;8.23;3.95;;;;;;;5.41;91.95;102533.63;5026634;28;20040;-81
2022/10/11 05:41:27;;;;;;;11.35;3.83;;;;;;;5.42;92.18;102535.31;5024830;28;20037;-81
2022/10/11 05:43:53;;;;;;;11.05;4.22;;;;;;;5.40;92.55;102529.38;5022289;28;20381;-81
2022/10/11 05:46:18;;;;;;;9.13;4.03;;;;;;;5.44;92.64;102526.63;5025883;28;20026;-81
2022/10/11 05:48:44;;;;;;;11.63;5.28;;;;;;;5.42;92.17;102527.59;5025477;28;20299;-81
2022/10/11 05:51:10;;;;;;;13.23;5.53;;;;;;;5.46;92.05;102530.03;5025997;28;20025;-81
2022/10/11 05:53:37;;;;;;;11.10;4.30;;;;;;;5.51;91.09;102545.31;5024763;28;20065;-82
2022/10/11 05:56:03;;;;;;;8.50;4.55;;;;;;;5.42;91.24;102541.28;5026179;28;20053;-81
2022/10/11 05:58:28;;;;;;;11.48;4.47;;;;;;;5.42;91.26;102548.19;5025329;28;20140;-81
2022/10/11 06:00:55;;;;;;;10.05;4.50;;;;;;;5.33;91.11;102539.88;5024288;28;20555;-81
2022/10/11 06:03:21;;;;;;;6.47;3.10;;;;;;;5.40;90.49;102549.97;5024022;28;20033;-81
2022/10/11 06:05:46;;;;;;;8.15;4.63;;;;;;;5.41;90.72;102562.78;5024726;28;20026;-81
2022/10/11 06:08:12;;;;;;;10.20;5.07;;;;;;;5.32;90.53;102553.59;5025575;28;20530;-81
2022/10/11 06:10:38;;;;;;;8.88;5.07;;;;;;;5.26;90.31;102553.81;5026077;28;20377;-81
2022/10/11 06:13:04;;;;;;;10.43;4.30;;;;;;;5.24;90.26;102565.88;5022730;28;20148;-81
2022/10/11 06:15:30;;;;;;;6.78;4.00;;;;;;;5.12;90.44;102558.56;5025446;28;20044;-82
2022/10/11 06:17:56;;;;;;;9.65;3.67;;;;;;;5.12;90.33;102575.72;5026529;28;20041;-81
2022/10/11 06:20:22;;;;;;;6.03;3.30;;;;;;;5.07;90.09;102568.13;5024911;28;20022;-81
2022/10/11 06:22:47;;;;;;;8.63;3.25;;;;;;;5.03;90.68;102566.53;5025909;28;20036;-80
2022/10/11 06:25:12;;;;;;;6.55;3.28;;;;;;;4.95;90.96;102565.94;5026174;28;20135;-81
2022/10/11 06:27:37;;;;;;;5.03;2.70;;;;;;;5.03;90.79;102576.81;5025071;28;20026;-82
2022/10/11 06:30:04;;;;;;;5.40;3.00;;;;;;;4.98;91.32;102568.41;5026213;28;20115;-81
2022/10/11 06:32:29;;;;;;;9.57;3.10;;;;;;;5.06;91.32;102576.75;5025421;28;20025;-80
2022/10/11 06:34:55;;;;;;;12.02;3.90;;;;;;;5.12;91.52;102586.84;5026110;28;20379;-81
2022/10/11 06:37:20;;;;;;;9.30;2.97;;;;;;;5.16;91.56;102585.88;5025847;28;20116;-80
2022/10/11 06:39:45;;;;;;;5.97;3.40;;;;;;;5.20;91.92;102590.00;5025867;28;20477;-80
2022/10/11 06:42:11;;;;;;;7.47;3.35;;;;;;;5.22;91.74;102587.41;5016851;28;20505;-81
2022/10/11 06:44:37;;;;;;;7.40;3.30;;;;;;;5.21;91.77;102586.53;5025169;28;20057;-81
2022/10/11 06:47:04;;;;;;;8.05;3.33;;;;;;;5.20;91.92;102584.88;5023829;28;20481;-81
2022/10/11 06:49:29;;;;;;;12.27;5.35;;;;;;;5.27;91.82;102601.78;5023300;28;20037;-81
2022/10/11 06:51:54;;;;;;;8.50;3.95;;;;;;;5.28;91.86;102598.34;5025516;28;20032;-80
2022/10/11 06:54:20;;;;;;;7.97;3.88;;;;;;;5.30;91.88;102601.69;5020391;28;20029;-81
2022/10/11 06:56:45;;;;;;;8.23;4.05;;;;;;;5.39;92.10;102607.44;5025694;28;20140;-81
2022/10/11 06:59:12;;;;;;;8.98;3.65;;;;;;;5.43;92.43;102607.31;5025585;28;20104;-81
2022/10/11 07:01:37;;;;;;;9.45;5.05;;;;;;;5.40;92.37;102606.56;5025290;28;20036;-81
2022/10/11 07:04:03;;;;;;;6.72;3.38;;;;;;;5.44;92.72;102613.28;5024350;28;20029;-81
2022/10/11 07:06:29;;;;;;;8.75;3.50;;;;;;;5.52;92.14;102621.63;5024415;28;20033;-81
2022/10/11 07:08:56;;;;;;;9.98;4.00;;;;;;;5.56;92.54;102623.19;5024990;28;20052;-81
2022/10/11 07:11:24;;;;;;;9.75;3.97;;;;;;;5.56;92.67;102615.47;5022223;28;20022;-81
2022/10/11 07:13:55;;;;;;;7.68;3.85;;;;;;;5.64;92.65;102621.22;5024677;28;20153;-81
2022/10/11 07:16:22;;;;;;;9.65;4.60;;;;;;;5.59;92.43;102608.50;5024829;28;20029;-81
2022/10/11 07:18:51;;;;;;;10.35;4.70;;;;;;;5.70;92.73;102618.47;5023749;28;20449;-81
2022/10/11 07:21:16;;;;;;;9.73;5.15;;;;;;;5.69;92.36;102609.06;5024377;28;20083;-81
2022/10/11 07:23:42;;;;;;;9.00;4.15;;;;;;;5.73;92.29;102615.75;5024010;28;20485;-80
2022/10/11 07:26:08;;;;;;;11.93;4.20;;;;;;;5.78;92.23;102613.03;5022394;28;20073;-81
2022/10/11 07:28:34;;;;;;;10.18;4.85;;;;;;;5.90;92.64;102632.41;5024502;28;20033;-81
2022/10/11 07:31:21;;;;;;;10.48;4.93;;;;;;;5.91;92.90;102629.84;5025088;28;20512;-80
2022/10/11 07:33:47;;;;;;;11.32;5.85;;;;;;;5.93;92.62;102638.34;5024892;28;20387;-80
2022/10/11 07:36:14;;;;;;;11.18;4.50;;;;;;;5.97;92.24;102639.94;5024274;28;20457;-81
2022/10/11 07:38:41;;;;;;;9.45;4.65;;;;;;;6.00;92.03;102638.97;5024456;28;20112;-81
2022/10/11 07:41:07;;;;;;;12.25;4.95;;;;;;;6.01;92.13;102636.34;5025273;28;20036;-81
2022/10/11 07:43:32;;;;;;;10.68;4.82;;;;;;;5.99;92.78;102632.13;5022645;28;20872;-81
2022/10/11 07:46:02;;;;;;;13.48;4.68;;;;;;;6.01;92.76;102632.91;5019849;28;20471;-81
2022/10/11 07:48:28;;;;;;;10.85;5.25;;;;;;;6.13;92.71;102646.22;5022749;28;20079;-81
2022/10/11 07:51:03;;;;;;;15.43;6.40;;;;;;;6.09;93.42;102639.50;5023764;28;20049;-81
2022/10/11 07:53:29;;;;;;;12.95;6.18;;;;;;;6.25;93.47;102650.16;5023107;28;20482;-80
2022/10/11 07:55:54;;;;;;;9.25;5.18;;;;;;;6.28;92.92;102650.03;5020806;28;20059;-80
2022/10/11 07:58:19;;;;;;;11.18;5.47;;;;;;;6.31;93.20;102644.78;5023451;28;20025;-82
2022/10/11 08:00:45;;;;;;;10.48;4.88;;;;;;;6.41;93.47;102654.75;5023858;28;20040;-81
2022/10/11 08:03:10;;;;;;;12.32;6.00;;;;;;;6.45;93.67;102646.03;5023189;28;20036;-80
2022/10/11 08:05:38;;;;;;;14.07;5.95;;;;;;;6.51;94.10;102645.81;5023885;28;20076;-81
2022/10/11 08:08:03;;;;;;;11.30;6.35;;;;;;;6.65;94.74;102653.88;5023191;28;20056;-81
2022/10/11 08:10:29;;;;;;;13.88;6.53;;;;;;;6.64;94.43;102647.03;5022350;28;20026;-81
2022/10/11 08:12:54;;;;;;;10.90;5.57;;;;;;;6.78;94.32;102655.13;5023645;28;20025;-81
2022/10/11 08:15:20;;;;;;;12.48;6.97;;;;;;;6.90;94.95;102659.84;5023639;28;20029;-81
2022/10/11 08:17:46;;;;;;;11.88;5.97;;;;;;;7.02;94.43;102653.38;5023655;28;20029;-81
2022/10/11 08:20:11;;;;;;;17.65;5.93;;;;;;;7.11;95.34;102653.06;5023064;28;20589;-80
2022/10/11 08:22:37;;;;;;;13.07;6.18;;;;;;;7.24;95.65;102663.75;5027535;28;20029;-81
2022/10/11 08:25:03;;;;;;;11.48;6.10;;;;;;;7.37;95.78;102667.53;5027910;28;20029;-80
2022/10/11 08:27:28;;;;;;;11.55;5.50;;;;;;;7.43;96.49;102666.47;5025460;28;20025;-82
2022/10/11 08:29:53;;;;;;;10.57;5.50;;;;;;;7.49;96.51;102663.63;5026129;28;20018;-81
2022/10/11 08:32:19;;;;;;;11.52;5.97;;;;;;;7.61;96.81;102663.16;5024859;28;20362;-81
2022/10/11 08:34:44;;;;;;;12.50;5.72;;;;;;;7.71;96.49;102668.78;5027848;28;20466;-81
2022/10/11 08:37:09;;;;;;;14.88;6.25;;;;;;;7.83;96.69;102657.97;5025357;28;20029;-81
2022/10/11 08:39:34;;;;;;;13.18;6.05;;;;;;;7.92;96.85;102657.59;5027031;28;20026;-81
2022/10/11 08:42:11;;;;;;;10.98;5.40;;;;;;;8.08;97.21;102677.63;5027930;28;20060;-81
2022/10/11 08:44:50;;;;;;;11.63;4.72;;;;;;;8.15;96.90;102668.72;5025976;28;20036;-81
2022/10/11 08:47:41;;;;;;;14.93;5.85;;;;;;;8.33;96.74;102683.47;5025589;28;20481;-81
2022/10/11 08:50:16;;;;;;;11.25;5.07;;;;;;;8.41;96.21;102671.06;5025208;28;20057;-81
2022/10/11 08:52:52;;;;;;;10.40;4.65;;;;;;;8.53;96.35;102672.28;5023081;28;20167;-81
2022/10/11 08:55:27;;;;;;;12.30;5.45;;;;;;;8.71;96.22;102681.81;5040452;28;20394;-81
2022/10/11 08:57:55;;;;;;;13.43;5.28;;;;;;;8.87;96.46;102684.56;5024039;28;20040;-81
2022/10/11 09:00:22;;;;;;;10.60;5.60;;;;;;;8.99;96.54;102684.03;5026632;28;20033;-81
2022/10/11 09:03:05;;;;;;;14.13;5.35;;;;;;;9.09;96.26;102688.78;5027236;28;20037;-81
2022/10/11 09:05:34;;;;;;;11.20;5.03;;;;;;;9.11;95.20;102674.00;5015284;28;20038;-81
2022/10/11 09:08:17;;;;;;;11.95;4.35;;;;;;;9.26;95.03;102681.94;5017803;28;20560;-81
2022/10/11 09:10:56;;;;;;;12.98;5.00;;;;;;;9.36;93.97;102687.53;5017319;28;20041;-81
2022/10/11 09:13:42;;;;;;;12.75;4.68;;;;;;;9.44;93.91;102667.28;5025620;28;20065;-79
2022/10/11 09:16:07;;;;;;;10.45;3.85;;;;;;;9.59;93.94;102689.03;5025384;28;20029;-81
2022/10/11 09:18:41;;;;;;;10.68;3.80;;;;;;;9.70;93.11;102680.75;5026010;28;20386;-81
2022/10/11 09:21:09;;;;;;;9.75;4.15;;;;;;;9.82;93.55;102685.34;5026436;28;20552;-80
2022/10/11 09:24:02;;;;;;;13.40;4.53;;;;;;;9.94;93.44;102689.91;5026653;28;20071;-81
2022/10/11 09:26:36;;;;;;;11.52;4.68;;;;;;;10.03;93.06;102671.28;5036504;28;20488;-81
2022/10/11 09:29:29;;;;;;;10.38;4.40;;;;;;;10.25;93.20;102688.41;5022976;28;20033;-81
2022/10/11 09:31:57;;;;;;;13.70;4.55;;;;;;;10.31;90.87;102693.28;5025178;28;20033;-81
2022/10/11 09:34:31;;;;;;;13.15;4.63;;;;;;;10.42;91.33;102700.53;5018591;28;20038;-81
2022/10/11 09:37:08;;;;;;;9.63;4.25;;;;;;;10.50;92.06;102703.59;5026322;28;20037;-81
2022/10/11 09:39:44;;;;;;;10.68;4.60;;;;;;;10.58;91.39;102686.69;5020728;28;20516;-80
2022/10/11 09:42:10;;;;;;;11.45;4.28;;;;;;;10.64;88.28;102696.75;5025450;28;20117;-81
2022/10/11 09:44:56;;;;;;;12.18;4.78;;;;;;;10.67;89.35;102685.38;5026690;28;20035;-81
2022/10/11 09:47:30;;;;;;;13.32;5.22;;;;;;;10.86;88.94;102693.03;5018390;28;20075;-81
2022/10/11 09:50:02;;;;;;;14.85;4.78;;;;;;;11.02;88.37;102696.50;5022617;28;20025;-81
2022/10/11 09:52:28;;;;;;;11.27;4.43;;;;;;;11.09;86.47;102703.03;5021289;28;20104;-81
2022/10/11 09:54:59;;;;;;;14.23;4.35;;;;;;;11.13;86.68;102693.34;5026988;28;20515;-80
2022/10/11 09:57:24;;;;;;;11.60;5.18;;;;;;;11.32;88.17;102700.94;5020571;28;20484;-81
2022/10/11 10:00:00;;;;;;;12.93;4.40;;;;;;;11.42;85.99;102699.53;5026838;28;20029;-82
2022/10/11 10:02:37;;;;;;;10.23;4.65;;;;;;;11.44;86.86;102682.91;5024376;28;20030;-81
2022/10/11 10:05:05;;;;;;;9.90;3.60;;;;;;;11.57;86.60;102698.66;5025510;28;20053;-81
2022/10/11 10:07:32;;;;;;;10.98;3.60;;;;;;;11.56;84.97;102686.59;5026287;28;21121;-81
2022/10/11 10:10:08;;;;;;;9.73;3.63;;;;;;;11.67;83.15;102699.81;5020154;28;20045;-81
2022/10/11 10:12:33;;;;;;;10.93;3.92;;;;;;;11.78;81.51;102698.38;5024382;28;20520;-81
2022/10/11 10:15:18;;;;;;;11.13;3.88;;;;;;;11.86;82.60;102699.66;5026715;28;20037;-81
2022/10/11 10:17:51;;;;;;;11.20;3.38;;;;;;;11.96;81.35;102697.38;5024150;28;20507;-81
2022/10/11 10:20:32;;;;;;;9.35;3.33;;;;;;;11.94;81.17;102686.22;5022631;28;20064;-81
2022/10/11 10:23:02;;;;;;;12.27;3.97;;;;;;;12.15;80.15;102694.53;5023736;28;20056;-81
2022/10/11 10:25:34;;;;;;;13.40;3.15;;;;;;;12.07;77.82;102692.38;5024031;28;20030;-82
2022/10/11 10:28:03;;;;;;;11.43;3.08;;;;;;;12.17;75.96;102698.72;5021468;28;20067;-81
2022/10/11 10:30:28;;;;;;;8.65;2.72;;;;;;;12.18;75.21;102679.59;5019399;28;20053;-81
2022/10/11 10:33:05;;;;;;;11.50;2.47;;;;;;;12.35;74.42;102694.22;5023089;28;20473;-81
2022/10/11 10:36:12;;;;;;;11.82;3.22;;;;;;;12.46;76.15;102693.56;5022331;28;20043;-82
2022/10/11 10:38:48;;;;;;;9.48;2.67;;;;;;;12.39;74.18;102690.50;4981421;28;20042;-81
2022/10/11 10:41:16;;;;;;;10.57;2.65;;;;;;;12.53;73.44;102689.66;4979238;28;20089;-82
2022/10/11 10:43:49;;;;;;;10.43;2.65;;;;;;;12.60;72.64;102685.75;4962245;28;20057;-81
2022/10/11 10:46:56;;;;;;;11.40;2.78;;;;;;;12.68;74.51;102691.34;4981413;28;20038;-81
2022/10/11 10:49:57;;;;;;;14.38;3.53;;;;;;;12.73;70.91;102697.13;4980500;28;20556;-81
2022/10/11 10:53:07;;;;;;;10.07;3.20;;;;;;;12.74;73.14;102687.53;4951600;28;20232;-81
2022/10/11 10:55:41;;;;;;;12.60;3.22;;;;;;;12.91;71.24;102689.13;4952778;28;20070;-81
2022/10/11 10:58:39;;;;;;;11.63;2.50;;;;;;;12.92;69.74;102690.78;4981480;28;20042;-81
2022/10/11 11:01:38;;;;;;;11.63;2.80;;;;;;;13.04;71.09;102690.03;4956970;28;20377;-81
2022/10/11 11:04:37;;;;;;;11.70;3.10;;;;;;;13.20;73.40;102687.31;4980238;28;20030;-81
2022/10/11 11:07:20;;;;;;;12.23;3.03;;;;;;;13.19;71.01;102686.47;4940326;28;20435;-81
2022/10/11 11:10:17;;;;;;;10.48;2.60;;;;;;;13.43;70.72;102675.44;4981552;28;20525;-81
2022/10/11 11:12:59;;;;;;;10.45;2.50;;;;;;;13.37;69.65;102688.88;4979954;28;20057;-81
2022/10/11 11:15:35;;;;;;;10.23;2.42;;;;;;;13.56;68.82;102681.53;5000386;28;20065;-81
2022/10/11 11:18:27;;;;;;;10.85;2.63;;;;;;;13.57;70.06;102672.78;5036212;28;20045;-81
2022/10/11 11:21:17;;;;;;;11.85;2.85;;;;;;;13.67;68.04;102679.06;5023669;28;20467;-82
2022/10/11 11:24:02;;;;;;;9.82;2.33;;;;;;;13.87;68.80;102684.72;5014093;28;20120;-81
2022/10/11 11:26:30;;;;;;;10.00;2.20;;;;;;;13.77;67.15;102663.66;5024185;28;20475;-81
2022/10/11 11:29:20;;;;;;;11.68;2.85;;;;;;;13.59;63.26;102667.44;5024020;28;20044;-81
2022/10/11 11:32:07;;;;;;;10.95;2.78;;;;;;;13.81;66.90;102652.06;5021403;28;20046;-82
2022/10/11 11:34:48;;;;;;;8.88;2.47;;;;;;;13.89;66.44;102656.78;5022707;28;20536;-81
2022/10/11 11:37:22;;;;;;;12.18;2.50;;;;;;;14.13;62.63;102655.16;5023520;28;20032;-81
2022/10/11 11:39:51;;;;;;;10.50;2.50;;;;;;;13.96;64.19;102652.84;5025059;28;20104;-81
2022/10/11 11:42:31;;;;;;;13.88;2.90;;;;;;;13.90;62.55;102648.03;5021493;28;20043;-81
2022/10/11 11:45:11;;;;;;;9.85;2.45;;;;;;;13.85;62.47;102639.66;5021847;28;20029;-81